Gettysburg, South Dakota
Current Conditions -  °F | °C
As of 2:52 AM on Friday 31 Oct 2014 (Local Time) from KMBG Reporting Station
Clear Clear  
Wind Chill: 16°   Ceiling: Unl
Heat Index: 25°   Visibility: 10mi
Dew Point: 20°   Wind: 8mph
Humidity: 81%   Direction: 70°ENE
Pressure: 30.55"   Gusts: NA
Location:  45.01°N, 99.96°W
Report Text: KMBG 310752Z AUTO 07007KT 10SM CLR M04/M07 A3055 RMK AO2 SLP366 T10391067
Loading
Personal Weather Stations






























Interactive Weather Map
Tropical Storm Tracking
New forecast layout! Learn more

10-Day Weather Forecast

Advertisements
Track Severe Weather on mobile